Terminal Aerodrome Forecast
Issued by NWS Mt. Holly, NJ

Home | Current Version | Previous Version | Text Only | Print | Product List | Glossary On
Versions: 1 2 3 4 5 6 7 8 9 10 11 12 13 14
000
FTUS41 KPHI 010500
TAFACY
TAF
KACY 010520Z 0106/0206 VRB04KT P6SM FEW060 BKN200
     FM011300 16007KT P6SM FEW050 BKN200
     FM020000 15005KT P6SM OVC050=

USA.gov is the U.S. government's official web portal to all federal, state and local government web resources and services.